Time;durP1;ratioP1;P1;durP2;ratioP2;P2;SDS_P1;SDS_P2;PMS_P1;PMS_P2;Temp;Humidity;BMP_temperature;BMP_pressure;BME280_temperature;BME280_humidity;BME280_pressure;Samples;Min_cycle;Max_cycle;Signal;HPM_P1;HPM_P2
2021/12/13 00:00:18;;;;;;;;;;;20.20;55.40;;;;;;4983366;28;1321;-71
2021/12/13 00:02:50;;;;;;;;;;;20.20;55.40;;;;;;5012258;28;1300;-71
2021/12/13 00:05:17;;;;;;;;;;;20.20;55.40;;;;;;5012842;28;1241;-71
2021/12/13 00:07:43;;;;;;;;;;;20.20;55.40;;;;;;4994928;28;1265;-71
2021/12/13 00:10:13;;;;;;;;;;;20.10;55.50;;;;;;4999155;28;1220;-71
2021/12/13 00:12:40;;;;;;;;;;;20.10;55.50;;;;;;4979920;28;1273;-71
2021/12/13 00:15:07;;;;;;;;;;;20.10;55.50;;;;;;5004684;28;1966;-71
2021/12/13 00:17:37;;;;;;;;;;;20.10;55.50;;;;;;4980338;28;1263;-71
2021/12/13 00:20:13;;;;;;;;;;;20.10;55.50;;;;;;5005087;28;1353;-71
2021/12/13 00:22:39;;;;;;;;;;;20.10;55.60;;;;;;4981763;28;1309;-71
2021/12/13 00:25:06;;;;;;;;;;;20.10;55.60;;;;;;5009390;28;1257;-71
2021/12/13 00:27:31;;;;;;;;;;;20.10;55.60;;;;;;5012424;28;1056;-71
2021/12/13 00:30:05;;;;;;;;;;;20.10;55.60;;;;;;4994870;28;1078;-71
2021/12/13 00:32:49;;;;;;;;;;;20.10;55.60;;;;;;4995139;28;1427;-71
2021/12/13 00:35:16;;;;;;;;;;;20.10;55.70;;;;;;5005701;28;1958;-71
2021/12/13 00:37:45;;;;;;;;;;;20.00;55.70;;;;;;4985928;28;1054;-71
2021/12/13 00:40:22;;;;;;;;;;;20.10;55.70;;;;;;4994919;28;1348;-71
2021/12/13 00:42:51;;;;;;;;;;;20.10;55.80;;;;;;4992453;28;1370;-71
2021/12/13 00:45:17;;;;;;;;;;;20.00;55.70;;;;;;4981749;28;1348;-71
2021/12/13 00:47:43;;;;;;;;;;;20.00;55.70;;;;;;5008529;28;1320;-71
2021/12/13 00:50:31;;;;;;;;;;;20.10;55.80;;;;;;5012402;28;1339;-71
2021/12/13 00:52:56;;;;;;;;;;;20.00;55.80;;;;;;5015434;28;1346;-71
2021/12/13 00:55:28;;;;;;;;;;;20.00;55.80;;;;;;5016185;28;1902;-71
2021/12/13 00:58:03;;;;;;;;;;;20.00;55.80;;;;;;4998245;28;1437;-71
2021/12/13 01:00:31;;;;;;;;;;;20.00;55.80;;;;;;5003249;28;998;-71
2021/12/13 01:03:09;;;;;;;;;;;20.00;55.80;;;;;;4998449;28;1281;-71
2021/12/13 01:05:53;;;;;;;;;;;20.00;55.90;;;;;;4995409;28;1078;-71
2021/12/13 01:08:37;;;;;;;;;;;20.00;55.90;;;;;;4999459;28;1215;-71
2021/12/13 01:11:15;;;;;;;;;;;20.00;55.90;;;;;;5004138;28;1273;-71
2021/12/13 01:13:43;;;;;;;;;;;19.90;55.80;;;;;;4995394;28;1243;-71
2021/12/13 01:16:18;;;;;;;;;;;20.00;55.90;;;;;;4984507;28;1919;-71
2021/12/13 01:19:13;;;;;;;;;;;20.00;55.90;;;;;;5013430;28;1250;-71
2021/12/13 01:21:54;;;;;;;;;;;19.90;55.90;;;;;;5001504;28;1383;-71
2021/12/13 01:24:40;;;;;;;;;;;19.90;55.90;;;;;;5014621;28;1313;-71
2021/12/13 01:27:05;;;;;;;;;;;19.90;55.90;;;;;;5000508;28;1363;-71
2021/12/13 01:29:30;;;;;;;;;;;19.90;56.00;;;;;;5015665;28;1036;-71
2021/12/13 01:31:58;;;;;;;;;;;19.90;56.00;;;;;;5015363;28;1328;-71
2021/12/13 01:34:24;;;;;;;;;;;19.90;56.00;;;;;;5015540;28;1888;-71
2021/12/13 01:37:01;;;;;;;;;;;19.90;56.00;;;;;;4997628;28;1269;-71
2021/12/13 01:39:27;;;;;;;;;;;19.90;56.00;;;;;;5001646;28;1325;-71
2021/12/13 01:41:58;;;;;;;;;;;19.90;56.10;;;;;;4983070;28;1361;-71
2021/12/13 01:44:25;;;;;;;;;;;19.90;56.10;;;;;;5011107;28;1125;-71
2021/12/13 01:46:55;;;;;;;;;;;19.90;56.10;;;;;;4997768;28;1357;-71
2021/12/13 01:49:24;;;;;;;;;;;19.90;56.10;;;;;;4995413;28;1285;-71
2021/12/13 01:51:50;;;;;;;;;;;19.90;56.10;;;;;;4984651;28;1328;-71
2021/12/13 01:54:19;;;;;;;;;;;19.90;56.10;;;;;;5007650;28;1906;-71
2021/12/13 01:56:58;;;;;;;;;;;19.90;56.10;;;;;;4985114;28;1328;-71
2021/12/13 02:01:56;;;;;;;;;;;19.80;56.10;;;;;;5015417;28;1359;-71
2021/12/13 02:04:22;;;;;;;;;;;19.80;56.20;;;;;;5015228;28;1495;-71
2021/12/13 02:06:48;;;;;;;;;;;19.80;56.10;;;;;;4997526;28;1244;-71
2021/12/13 02:09:24;;;;;;;;;;;19.80;56.80;;;;;;5006148;28;1629;-71
2021/12/13 02:11:51;;;;;;;;;;;19.80;56.20;;;;;;5014637;28;1272;-71
2021/12/13 02:14:21;;;;;;;;;;;19.80;56.20;;;;;;4982001;28;1910;-72
2021/12/13 02:17:01;;;;;;;;;;;19.80;56.20;;;;;;5008463;28;1140;-72
2021/12/13 02:19:41;;;;;;;;;;;19.80;56.20;;;;;;4998626;28;879;-71
2021/12/13 02:22:09;;;;;;;;;;;19.80;56.20;;;;;;5014722;28;1327;-71
2021/12/13 02:24:35;;;;;;;;;;;19.80;56.20;;;;;;5002733;28;1041;-71
2021/12/13 02:27:01;;;;;;;;;;;19.80;56.30;;;;;;4992186;28;1388;-71
2021/12/13 02:29:35;;;;;;;;;;;19.80;56.30;;;;;;5002917;28;1317;-71
2021/12/13 02:32:00;;;;;;;;;;;19.80;56.30;;;;;;5001521;28;1475;-71
2021/12/13 02:34:29;;;;;;;;;;;19.80;56.40;;;;;;5013380;28;1898;-70
2021/12/13 02:36:54;;;;;;;;;;;19.80;56.30;;;;;;5014158;28;921;-72
2021/12/13 02:39:21;;;;;;;;;;;19.80;56.30;;;;;;5014484;28;1111;-73
2021/12/13 02:41:47;;;;;;;;;;;19.80;56.30;;;;;;4997081;28;1374;-71
2021/12/13 02:44:14;;;;;;;;;;;19.80;56.40;;;;;;5006913;28;1065;-71
2021/12/13 02:46:39;;;;;;;;;;;19.70;56.30;;;;;;5001655;28;1085;-71
2021/12/13 02:49:06;;;;;;;;;;;19.70;56.30;;;;;;4983965;28;1136;-71
2021/12/13 02:51:33;;;;;;;;;;;19.70;56.30;;;;;;5006881;28;1257;-71
2021/12/13 02:54:11;;;;;;;;;;;19.70;56.40;;;;;;5008686;28;1209;-71
2021/12/13 02:56:38;;;;;;;;;;;19.70;56.40;;;;;;5014232;28;1894;-72
2021/12/13 02:59:04;;;;;;;;;;;19.70;56.40;;;;;;5013284;28;1392;-72
2021/12/13 03:01:44;;;;;;;;;;;19.70;56.40;;;;;;5012974;28;1381;-71
2021/12/13 03:04:11;;;;;;;;;;;19.70;56.40;;;;;;5013797;28;1198;-71
2021/12/13 03:06:38;;;;;;;;;;;19.70;56.40;;;;;;5002826;28;1143;-71
2021/12/13 03:09:08;;;;;;;;;;;19.70;56.40;;;;;;4989969;28;1334;-72
2021/12/13 03:11:34;;;;;;;;;;;19.70;56.40;;;;;;4994405;28;1334;-71
2021/12/13 03:14:04;;;;;;;;;;;19.70;56.40;;;;;;4991657;28;1224;-71
2021/12/13 03:16:42;;;;;;;;;;;19.70;56.50;;;;;;5006155;28;1960;-72
2021/12/13 03:19:08;;;;;;;;;;;19.70;56.50;;;;;;5009559;28;1077;-72
2021/12/13 03:21:53;;;;;;;;;;;19.70;56.50;;;;;;4988554;28;1329;-71
2021/12/13 03:24:19;;;;;;;;;;;19.70;56.50;;;;;;5013775;28;1120;-71
2021/12/13 03:26:59;;;;;;;;;;;19.70;56.50;;;;;;5000232;28;1029;-71
2021/12/13 03:29:43;;;;;;;;;;;19.60;56.40;;;;;;5001791;28;1068;-71
2021/12/13 03:32:10;;;;;;;;;;;19.70;56.50;;;;;;5001871;28;1214;-71
2021/12/13 03:34:36;;;;;;;;;;;19.70;56.50;;;;;;5000284;28;1966;-71
2021/12/13 03:37:07;;;;;;;;;;;19.60;56.50;;;;;;4988060;28;1221;-71
2021/12/13 03:39:34;;;;;;;;;;;19.70;56.50;;;;;;5007449;28;1127;-71
2021/12/13 03:42:00;;;;;;;;;;;19.60;56.50;;;;;;4996072;28;1346;-71
2021/12/13 03:44:27;;;;;;;;;;;19.60;56.50;;;;;;5000379;28;1363;-72
2021/12/13 03:46:53;;;;;;;;;;;19.60;56.50;;;;;;5003507;28;1120;-71
2021/12/13 03:49:19;;;;;;;;;;;19.60;56.50;;;;;;5008954;28;1104;-71
2021/12/13 03:51:44;;;;;;;;;;;19.60;56.50;;;;;;4995708;28;1359;-72
2021/12/13 03:54:11;;;;;;;;;;;19.60;56.50;;;;;;5012957;28;1132;-71
2021/12/13 03:56:39;;;;;;;;;;;19.60;56.60;;;;;;5013245;28;1947;-71
2021/12/13 03:59:05;;;;;;;;;;;19.60;56.60;;;;;;4996875;28;1006;-71
2021/12/13 04:01:36;;;;;;;;;;;19.60;56.60;;;;;;5003020;28;1291;-71
2021/12/13 04:04:02;;;;;;;;;;;19.60;56.60;;;;;;5010139;28;1353;-72
2021/12/13 04:06:28;;;;;;;;;;;19.60;56.60;;;;;;4982333;28;1266;-71
2021/12/13 04:08:55;;;;;;;;;;;19.60;56.60;;;;;;5005273;28;1105;-72
2021/12/13 04:11:21;;;;;;;;;;;19.60;56.60;;;;;;5008384;28;1344;-71
2021/12/13 04:13:48;;;;;;;;;;;19.60;56.60;;;;;;4989261;28;1351;-71
2021/12/13 04:16:34;;;;;;;;;;;19.60;56.60;;;;;;4998443;28;1911;-71
2021/12/13 04:21:28;;;;;;;;;;;19.60;56.70;;;;;;5006345;28;1229;-72
2021/12/13 04:23:59;;;;;;;;;;;19.60;56.60;;;;;;5000523;28;1143;-73
2021/12/13 04:26:25;;;;;;;;;;;19.60;56.70;;;;;;4994213;28;1116;-71
2021/12/13 04:28:52;;;;;;;;;;;19.60;56.70;;;;;;4989514;28;1249;-70
2021/12/13 04:31:18;;;;;;;;;;;19.60;56.70;;;;;;5008289;28;1418;-72
2021/12/13 04:33:45;;;;;;;;;;;19.60;56.70;;;;;;5008718;28;1268;-72
2021/12/13 04:36:11;;;;;;;;;;;19.60;56.70;;;;;;5007365;28;1898;-73
2021/12/13 04:38:48;;;;;;;;;;;19.60;56.70;;;;;;4993475;28;1449;-70
2021/12/13 04:41:20;;;;;;;;;;;19.60;56.70;;;;;;5008263;28;1378;-72
2021/12/13 04:43:46;;;;;;;;;;;19.50;56.70;;;;;;4995275;28;1320;-71
2021/12/13 04:46:11;;;;;;;;;;;19.50;56.70;;;;;;5009004;28;1280;-70
2021/12/13 04:48:37;;;;;;;;;;;19.50;56.70;;;;;;5007715;28;1247;-71
2021/12/13 04:51:04;;;;;;;;;;;19.50;56.70;;;;;;5004639;28;1292;-71
2021/12/13 04:53:31;;;;;;;;;;;19.50;56.70;;;;;;5006855;28;1441;-70
2021/12/13 04:55:57;;;;;;;;;;;19.50;56.80;;;;;;5004043;28;1898;-69
2021/12/13 04:58:23;;;;;;;;;;;19.50;56.80;;;;;;5007847;28;1272;-71
2021/12/13 05:00:49;;;;;;;;;;;19.50;56.80;;;;;;5008188;28;1197;-70
2021/12/13 05:03:18;;;;;;;;;;;19.50;56.80;;;;;;5005214;28;1285;-70
2021/12/13 05:05:43;;;;;;;;;;;19.50;56.80;;;;;;5011466;28;1132;-74
2021/12/13 05:08:10;;;;;;;;;;;19.50;56.80;;;;;;5008666;28;1240;-70
2021/12/13 05:10:35;;;;;;;;;;;19.60;56.70;;;;;;5007076;28;1216;-72
2021/12/13 05:13:09;;;;;;;;;;;19.60;56.70;;;;;;5007846;28;1398;-70
2021/12/13 05:15:37;;;;;;;;;;;19.60;56.70;;;;;;5006671;28;2371;-71
2021/12/13 05:18:03;;;;;;;;;;;19.70;56.60;;;;;;5004768;28;1295;-71
2021/12/13 05:20:37;;;;;;;;;;;19.80;56.60;;;;;;5006402;28;1319;-71
2021/12/13 05:23:09;;;;;;;;;;;19.90;56.50;;;;;;5004921;28;1299;-70
2021/12/13 05:25:42;;;;;;;;;;;20.00;56.40;;;;;;5003952;28;1085;-72
2021/12/13 05:28:10;;;;;;;;;;;20.10;56.20;;;;;;5002682;28;1159;-69
2021/12/13 05:30:40;;;;;;;;;;;20.20;55.90;;;;;;5007473;28;1100;-69
2021/12/13 05:33:06;;;;;;;;;;;20.30;55.60;;;;;;4991756;28;1192;-71
2021/12/13 05:35:37;;;;;;;;;;;20.50;55.40;;;;;;4987372;28;1907;-71
2021/12/13 05:38:05;;;;;;;;;;;20.50;55.10;;;;;;5001143;28;1132;-71
2021/12/13 05:40:35;;;;;;;;;;;20.60;54.80;;;;;;5004766;28;1100;-73
2021/12/13 05:43:02;;;;;;;;;;;20.70;54.60;;;;;;4991793;28;1387;-72
2021/12/13 05:45:34;;;;;;;;;;;20.80;54.40;;;;;;5006573;28;1112;-71
2021/12/13 05:48:07;;;;;;;;;;;20.90;54.10;;;;;;5001331;28;1120;-71
2021/12/13 05:50:35;;;;;;;;;;;21.00;53.90;;;;;;5003047;28;1084;-70
2021/12/13 05:53:03;;;;;;;;;;;21.10;53.80;;;;;;4997702;28;1185;-70
2021/12/13 05:55:28;;;;;;;;;;;21.10;53.60;;;;;;5001169;28;1902;-71
2021/12/13 05:57:54;;;;;;;;;;;21.20;53.40;;;;;;5014091;28;1128;-71
2021/12/13 06:00:19;;;;;;;;;;;21.30;53.30;;;;;;5002670;28;1072;-72
2021/12/13 06:02:58;;;;;;;;;;;21.30;53.10;;;;;;5015078;28;1325;-71
2021/12/13 06:05:27;;;;;;;;;;;21.40;53.10;;;;;;5013579;28;1332;-71
2021/12/13 06:07:53;;;;;;;;;;;21.40;52.90;;;;;;4995516;28;1393;-71
2021/12/13 06:10:21;;;;;;;;;;;21.50;52.90;;;;;;5014961;28;1383;-70
2021/12/13 06:12:51;;;;;;;;;;;21.50;52.80;;;;;;5005973;28;1186;-71
2021/12/13 06:15:16;;;;;;;;;;;21.50;52.70;;;;;;4998533;28;1980;-71
2021/12/13 06:17:49;;;;;;;;;;;21.60;52.60;;;;;;5005139;28;1116;-70
2021/12/13 06:20:16;;;;;;;;;;;21.60;52.50;;;;;;5012622;28;1143;-71
2021/12/13 06:22:41;;;;;;;;;;;21.60;52.50;;;;;;5004551;28;1295;-70
2021/12/13 06:25:08;;;;;;;;;;;21.70;52.40;;;;;;5011125;28;1164;-70
2021/12/13 06:27:41;;;;;;;;;;;21.70;52.40;;;;;;4995447;28;1149;-70
2021/12/13 06:30:08;;;;;;;;;;;21.70;52.30;;;;;;4995340;28;1288;-71
2021/12/13 06:32:38;;;;;;;;;;;21.80;52.30;;;;;;5006597;28;1312;-72
2021/12/13 06:35:22;;;;;;;;;;;21.80;52.20;;;;;;4996362;28;1898;-71
2021/12/13 06:37:48;;;;;;;;;;;21.80;52.20;;;;;;5009165;28;1065;-71
2021/12/13 06:40:19;;;;;;;;;;;21.90;52.20;;;;;;5001830;28;1136;-72
2021/12/13 06:42:44;;;;;;;;;;;21.90;52.20;;;;;;5011245;28;1346;-71
2021/12/13 06:45:39;;;;;;;;;;;21.90;52.10;;;;;;4995011;28;1076;-71
2021/12/13 06:48:04;;;;;;;;;;;21.90;52.10;;;;;;4991202;28;1522;-71
2021/12/13 06:50:31;;;;;;;;;;;21.90;52.00;;;;;;5001670;28;1101;-71
2021/12/13 06:53:10;;;;;;;;;;;22.00;52.10;;;;;;5008171;28;1304;-70
2021/12/13 06:55:35;;;;;;;;;;;22.00;52.00;;;;;;5008778;28;1902;-73
2021/12/13 06:58:03;;;;;;;;;;;22.00;52.00;;;;;;4997035;28;1090;-70
2021/12/13 07:00:32;;;;;;;;;;;22.00;52.00;;;;;;4997022;28;1486;-71
2021/12/13 07:03:10;;;;;;;;;;;22.00;52.00;;;;;;5014428;28;1216;-70
2021/12/13 07:05:36;;;;;;;;;;;22.00;52.00;;;;;;5014040;28;1128;-71
2021/12/13 07:08:04;;;;;;;;;;;22.10;52.00;;;;;;4990509;28;1991;-71
2021/12/13 07:10:32;;;;;;;;;;;22.10;52.00;;;;;;5006293;28;1220;-71
2021/12/13 07:12:59;;;;;;;;;;;22.10;52.00;;;;;;4998452;28;1271;-72
2021/12/13 07:15:39;;;;;;;;;;;22.10;51.90;;;;;;5008685;28;1914;-72
2021/12/13 07:18:05;;;;;;;;;;;22.10;51.90;;;;;;5002328;28;937;-73
2021/12/13 07:20:54;;;;;;;;;;;22.10;51.90;;;;;;5010320;28;1902;-72
2021/12/13 07:23:19;;;;;;;;;;;22.10;51.90;;;;;;5006118;28;1256;-72
2021/12/13 07:25:45;;;;;;;;;;;22.10;51.90;;;;;;5002298;28;1216;-73
2021/12/13 07:28:11;;;;;;;;;;;22.10;52.00;;;;;;4997621;28;1236;-73
2021/12/13 07:30:36;;;;;;;;;;;22.10;52.00;;;;;;4982097;28;1392;-71
2021/12/13 07:33:07;;;;;;;;;;;22.10;52.00;;;;;;5007216;28;1419;-72
2021/12/13 07:35:32;;;;;;;;;;;22.10;52.00;;;;;;5003316;28;1899;-71
2021/12/13 07:38:06;;;;;;;;;;;22.10;51.90;;;;;;5013420;28;1186;-70
2021/12/13 07:40:31;;;;;;;;;;;22.10;51.90;;;;;;5012513;28;1131;-69
2021/12/13 07:43:02;;;;;;;;;;;22.10;52.00;;;;;;5008910;28;1223;-71
2021/12/13 07:45:31;;;;;;;;;;;22.10;52.00;;;;;;4993898;28;1278;-70
2021/12/13 07:47:57;;;;;;;;;;;22.10;52.00;;;;;;5006890;28;819;-70
2021/12/13 07:50:22;;;;;;;;;;;22.10;52.00;;;;;;4987520;28;1065;-71
2021/12/13 07:52:52;;;;;;;;;;;22.00;52.00;;;;;;4998890;28;1275;-70
2021/12/13 07:55:22;;;;;;;;;;;22.10;52.00;;;;;;5000815;28;1910;-70
2021/12/13 07:57:48;;;;;;;;;;;22.10;52.00;;;;;;4991063;28;1310;-71
2021/12/13 08:00:18;;;;;;;;;;;22.00;52.00;;;;;;5005609;28;1069;-70
2021/12/13 08:02:54;;;;;;;;;;;22.00;52.10;;;;;;5008582;28;1325;-70
2021/12/13 08:05:22;;;;;;;;;;;22.00;52.10;;;;;;4990055;28;1222;-69
2021/12/13 08:07:55;;;;;;;;;;;22.00;52.20;;;;;;4999767;28;997;-71
2021/12/13 08:10:22;;;;;;;;;;;21.90;52.20;;;;;;5002700;28;1370;-72
2021/12/13 08:13:08;;;;;;;;;;;21.90;52.30;;;;;;5013646;28;1392;-72
2021/12/13 08:15:33;;;;;;;;;;;21.90;52.40;;;;;;4994352;28;1910;-71
2021/12/13 08:18:06;;;;;;;;;;;21.90;52.40;;;;;;4993348;28;1270;-72
2021/12/13 08:20:31;;;;;;;;;;;21.80;52.50;;;;;;4991513;28;1341;-72
2021/12/13 08:22:57;;;;;;;;;;;21.80;52.50;;;;;;5005462;28;1376;-71
2021/12/13 08:25:25;;;;;;;;;;;21.80;52.60;;;;;;5012950;28;1404;-71
2021/12/13 08:27:52;;;;;;;;;;;21.80;52.60;;;;;;5011534;28;1264;-72
2021/12/13 08:30:24;;;;;;;;;;;21.80;52.70;;;;;;5011471;28;2018;-72
2021/12/13 08:32:56;;;;;;;;;;;21.80;52.70;;;;;;4997474;28;1223;-73
2021/12/13 08:35:22;;;;;;;;;;;21.80;52.70;;;;;;5011373;28;1966;-71
2021/12/13 08:37:52;;;;;;;;;;;21.80;52.60;;;;;;4993271;28;1269;-71
2021/12/13 08:40:18;;;;;;;;;;;21.90;52.70;;;;;;5013018;28;1088;-71
2021/12/13 08:42:44;;;;;;;;;;;21.90;52.60;;;;;;5004508;28;1367;-69
2021/12/13 08:45:16;;;;;;;;;;;21.90;52.60;;;;;;4989036;28;1176;-70
2021/12/13 08:47:46;;;;;;;;;;;22.00;52.50;;;;;;5012451;28;1241;-71
2021/12/13 08:50:20;;;;;;;;;;;22.00;52.50;;;;;;5013150;28;1327;-70
2021/12/13 08:52:47;;;;;;;;;;;22.00;52.30;;;;;;4995085;28;1426;-71
2021/12/13 08:55:12;;;;;;;;;;;22.10;52.30;;;;;;4995206;28;1964;-71
2021/12/13 08:57:40;;;;;;;;;;;22.10;52.20;;;;;;4999768;28;1410;-72
2021/12/13 09:00:12;;;;;;;;;;;22.10;52.20;;;;;;5012694;28;1313;-72
2021/12/13 09:02:41;;;;;;;;;;;22.10;52.10;;;;;;5012995;28;1283;-70
2021/12/13 09:05:09;;;;;;;;;;;22.20;52.10;;;;;;4995674;28;1321;-69
2021/12/13 09:07:35;;;;;;;;;;;22.20;52.10;;;;;;4993158;28;1359;-70
2021/12/13 09:10:00;;;;;;;;;;;22.20;52.10;;;;;;5009938;28;1177;-71
2021/12/13 09:12:27;;;;;;;;;;;22.20;52.00;;;;;;5012419;28;1355;-72
2021/12/13 09:14:55;;;;;;;;;;;22.30;52.00;;;;;;4998360;28;1964;-71
2021/12/13 09:17:32;;;;;;;;;;;22.30;52.00;;;;;;4996954;28;1314;-71
2021/12/13 09:20:23;;;;;;;;;;;22.30;51.90;;;;;;4990318;28;1077;-70
2021/12/13 09:22:53;;;;;;;;;;;22.30;51.90;;;;;;5012185;28;1303;-70
2021/12/13 09:25:29;;;;;;;;;;;22.30;51.90;;;;;;4998363;28;1356;-71
2021/12/13 09:27:56;;;;;;;;;;;22.30;51.80;;;;;;4998470;28;1076;-72
2021/12/13 09:30:30;;;;;;;;;;;22.30;51.80;;;;;;4996650;28;1377;-72
2021/12/13 09:32:59;;;;;;;;;;;22.30;51.80;;;;;;4996333;28;1294;-72
2021/12/13 09:35:43;;;;;;;;;;;22.40;51.90;;;;;;4996224;28;1894;-72
2021/12/13 09:38:15;;;;;;;;;;;22.40;51.80;;;;;;4991861;28;1364;-70
2021/12/13 09:40:40;;;;;;;;;;;22.40;51.80;;;;;;5007004;28;1322;-70
2021/12/13 09:43:06;;;;;;;;;;;22.40;51.80;;;;;;4998344;28;1333;-72
2021/12/13 09:45:34;;;;;;;;;;;22.40;51.80;;;;;;5005338;28;1390;-71
2021/12/13 09:48:02;;;;;;;;;;;22.40;51.80;;;;;;4990945;28;1302;-73
2021/12/13 09:50:30;;;;;;;;;;;22.40;51.80;;;;;;5009505;28;1246;-74
2021/12/13 09:52:55;;;;;;;;;;;22.40;51.80;;;;;;5013301;28;1357;-72
2021/12/13 09:55:20;;;;;;;;;;;22.40;51.80;;;;;;5014677;28;1902;-72
2021/12/13 09:58:04;;;;;;;;;;;22.40;51.80;;;;;;5015025;28;1268;-73
2021/12/13 10:00:30;;;;;;;;;;;22.40;51.80;;;;;;4997574;28;1072;-72
2021/12/13 10:03:00;;;;;;;;;;;22.40;51.70;;;;;;4997678;28;1225;-72
2021/12/13 10:05:27;;;;;;;;;;;22.40;51.80;;;;;;5015229;28;1284;-72
2021/12/13 10:07:54;;;;;;;;;;;22.40;51.80;;;;;;4997579;28;1331;-73
2021/12/13 10:10:49;;;;;;;;;;;22.40;51.80;;;;;;5010731;28;1261;-73
2021/12/13 10:13:15;;;;;;;;;;;22.40;51.80;;;;;;4985116;28;1319;-73
2021/12/13 10:15:43;;;;;;;;;;;22.40;51.70;;;;;;4996813;28;1976;-72
2021/12/13 10:18:09;;;;;;;;;;;22.40;51.70;;;;;;5001074;28;1183;-73
2021/12/13 10:20:36;;;;;;;;;;;22.40;51.70;;;;;;5001773;28;1104;-73
2021/12/13 10:23:03;;;;;;;;;;;22.40;51.70;;;;;;5002049;28;1203;-73
2021/12/13 10:25:32;;;;;;;;;;;22.40;51.80;;;;;;4992240;28;1009;-73
2021/12/13 10:27:58;;;;;;;;;;;22.40;51.80;;;;;;5005526;28;1256;-72
2021/12/13 10:30:31;;;;;;;;;;;22.40;51.90;;;;;;5006188;28;1161;-74
2021/12/13 10:32:57;;;;;;;;;;;22.40;51.90;;;;;;5004827;28;1425;-72
2021/12/13 10:35:24;;;;;;;;;;;22.30;51.90;;;;;;5006155;28;1964;-70
2021/12/13 10:37:50;;;;;;;;;;;22.30;51.90;;;;;;5004879;28;1172;-71
2021/12/13 10:40:19;;;;;;;;;;;22.30;51.90;;;;;;5006309;28;1225;-72
2021/12/13 10:42:46;;;;;;;;;;;22.30;51.90;;;;;;5004060;28;1279;-71
2021/12/13 10:45:13;;;;;;;;;;;22.30;52.00;;;;;;5007221;28;1216;-71
2021/12/13 10:47:40;;;;;;;;;;;22.40;52.00;;;;;;5004570;28;1260;-71
2021/12/13 10:50:06;;;;;;;;;;;22.30;52.00;;;;;;5004501;28;1216;-71
2021/12/13 10:52:33;;;;;;;;;;;22.30;52.00;;;;;;5003936;28;1351;-70
2021/12/13 10:54:59;;;;;;;;;;;22.40;52.00;;;;;;5007769;28;1890;-70
2021/12/13 10:57:33;;;;;;;;;;;22.30;52.00;;;;;;5003599;28;1300;-71
2021/12/13 10:59:59;;;;;;;;;;;22.30;52.00;;;;;;4992523;28;1308;-71
2021/12/13 11:02:26;;;;;;;;;;;22.40;52.00;;;;;;5006734;28;1299;-71
2021/12/13 11:04:56;;;;;;;;;;;22.40;52.00;;;;;;5005946;28;1225;-74
2021/12/13 11:07:22;;;;;;;;;;;22.40;52.00;;;;;;5004767;28;1269;-74
2021/12/13 11:09:48;;;;;;;;;;;22.40;52.00;;;;;;5005650;28;1236;-69
2021/12/13 11:12:18;;;;;;;;;;;22.40;52.00;;;;;;5004537;28;1278;-73
2021/12/13 11:14:44;;;;;;;;;;;22.40;51.90;;;;;;4996885;28;1914;-73
2021/12/13 11:17:12;;;;;;;;;;;22.40;51.90;;;;;;5005560;28;1240;-74
2021/12/13 11:19:38;;;;;;;;;;;22.40;51.90;;;;;;4987314;28;1186;-73
2021/12/13 11:22:06;;;;;;;;;;;22.40;51.90;;;;;;4992349;28;1286;-72
2021/12/13 11:24:32;;;;;;;;;;;22.40;51.90;;;;;;4994500;28;1284;-72
2021/12/13 11:26:59;;;;;;;;;;;22.50;52.00;;;;;;4991204;28;1421;-72
2021/12/13 11:29:24;;;;;;;;;;;22.50;51.90;;;;;;5005508;28;1337;-71
2021/12/13 11:31:53;;;;;;;;;;;22.40;51.90;;;;;;5013656;28;1339;-72
2021/12/13 11:34:18;;;;;;;;;;;22.50;52.00;;;;;;5013657;28;1335;-71
2021/12/13 11:36:46;;;;;;;;;;;22.50;51.90;;;;;;5012155;28;1957;-72
2021/12/13 11:39:18;;;;;;;;;;;22.40;51.80;;;;;;5013338;28;1130;-72
2021/12/13 11:41:52;;;;;;;;;;;22.50;51.80;;;;;;5013417;28;1316;-72
2021/12/13 11:44:26;;;;;;;;;;;22.50;51.80;;;;;;5013185;28;1299;-72
2021/12/13 11:46:58;;;;;;;;;;;22.50;51.80;;;;;;5003818;28;1068;-71
2021/12/13 11:49:29;;;;;;;;;;;22.50;51.80;;;;;;5009992;28;1069;-72
2021/12/13 11:52:09;;;;;;;;;;;22.50;51.90;;;;;;5002369;28;1308;-72
2021/12/13 11:54:36;;;;;;;;;;;22.40;51.80;;;;;;4993337;28;1890;-72
2021/12/13 11:57:12;;;;;;;;;;;22.50;51.90;;;;;;4984914;28;1359;-71
2021/12/13 11:59:49;;;;;;;;;;;22.40;51.90;;;;;;4999296;28;1291;-71
2021/12/13 12:02:23;;;;;;;;;;;22.40;51.90;;;;;;5012511;28;1284;-71
2021/12/13 12:05:07;;;;;;;;;;;22.40;52.00;;;;;;5013025;28;1052;-72
2021/12/13 12:07:40;;;;;;;;;;;22.40;52.00;;;;;;4994863;28;1186;-72
2021/12/13 12:10:24;;;;;;;;;;;22.40;52.10;;;;;;4999873;28;1208;-72
2021/12/13 12:13:08;;;;;;;;;;;22.30;52.10;;;;;;5004056;28;1343;-73
2021/12/13 12:15:34;;;;;;;;;;;22.30;52.20;;;;;;4997399;28;1910;-72
2021/12/13 12:18:00;;;;;;;;;;;22.30;52.20;;;;;;5001634;28;1259;-72
2021/12/13 12:20:27;;;;;;;;;;;22.20;52.20;;;;;;4992681;28;1236;-73
2021/12/13 12:22:53;;;;;;;;;;;22.20;52.20;;;;;;4992969;28;1630;-72
2021/12/13 12:25:19;;;;;;;;;;;22.20;52.30;;;;;;4989839;28;1343;-73
2021/12/13 12:27:45;;;;;;;;;;;22.20;52.40;;;;;;5004073;28;1250;-72
2021/12/13 12:30:11;;;;;;;;;;;22.10;52.40;;;;;;4994723;28;1377;-69
2021/12/13 12:32:38;;;;;;;;;;;22.10;52.50;;;;;;5009020;28;1866;-74
2021/12/13 12:35:05;;;;;;;;;;;22.10;52.50;;;;;;5005348;28;1890;-75
2021/12/13 12:37:49;;;;;;;;;;;22.10;52.60;;;;;;5000755;28;1028;-73
2021/12/13 12:40:25;;;;;;;;;;;22.10;52.60;;;;;;4992807;28;1218;-74
2021/12/13 12:42:52;;;;;;;;;;;22.00;52.60;;;;;;5007542;28;1291;-70
2021/12/13 12:45:31;;;;;;;;;;;22.00;52.70;;;;;;4997460;28;1096;-72
2021/12/13 12:48:10;;;;;;;;;;;22.00;53.40;;;;;;5011037;28;1269;-74
2021/12/13 12:50:35;;;;;;;;;;;22.00;52.80;;;;;;5004013;28;1342;-74
2021/12/13 12:53:06;;;;;;;;;;;22.00;52.80;;;;;;4996831;28;1203;-74
2021/12/13 12:55:39;;;;;;;;;;;21.90;52.80;;;;;;4995785;28;1960;-73
2021/12/13 12:58:06;;;;;;;;;;;21.90;52.90;;;;;;5004474;28;1261;-74
2021/12/13 13:00:31;;;;;;;;;;;21.90;52.90;;;;;;4998931;28;1531;-74
2021/12/13 13:02:57;;;;;;;;;;;21.90;53.00;;;;;;5016769;28;1209;-74
2021/12/13 13:05:22;;;;;;;;;;;21.90;53.00;;;;;;4997517;28;1176;-74
2021/12/13 13:07:50;;;;;;;;;;;21.80;53.00;;;;;;4983658;28;1355;-74
2021/12/13 13:10:21;;;;;;;;;;;21.90;53.10;;;;;;5014011;28;1292;-74
2021/12/13 13:12:46;;;;;;;;;;;21.80;53.10;;;;;;4999384;28;1362;-74
2021/12/13 13:15:13;;;;;;;;;;;21.80;53.10;;;;;;4996520;28;1911;-74
2021/12/13 13:17:43;;;;;;;;;;;21.80;53.70;;;;;;4996419;28;1397;-74
2021/12/13 13:20:16;;;;;;;;;;;21.80;53.20;;;;;;4996268;28;1097;-75
2021/12/13 13:22:43;;;;;;;;;;;21.80;53.20;;;;;;4996203;28;1318;-74
2021/12/13 13:25:29;;;;;;;;;;;21.80;53.30;;;;;;4991982;28;1388;-73
2021/12/13 13:27:55;;;;;;;;;;;21.70;53.30;;;;;;5009055;28;1312;-74
2021/12/13 13:30:23;;;;;;;;;;;21.70;53.30;;;;;;5015778;28;1491;-75
2021/12/13 13:32:49;;;;;;;;;;;21.70;53.30;;;;;;4998264;28;1330;-72
2021/12/13 13:35:14;;;;;;;;;;;21.70;53.40;;;;;;4994813;28;1903;-74
2021/12/13 13:37:40;;;;;;;;;;;21.70;53.40;;;;;;4995748;28;1255;-74
2021/12/13 13:40:08;;;;;;;;;;;21.70;53.40;;;;;;4996184;28;1251;-75
2021/12/13 13:42:34;;;;;;;;;;;21.70;53.50;;;;;;4995912;28;1279;-74
2021/12/13 13:45:07;;;;;;;;;;;21.60;53.40;;;;;;4996070;28;1284;-74
2021/12/13 13:47:34;;;;;;;;;;;21.60;53.50;;;;;;4990739;28;1093;-75
2021/12/13 13:50:18;;;;;;;;;;;21.60;53.50;;;;;;4998126;28;1380;-74
2021/12/13 13:52:44;;;;;;;;;;;21.60;53.50;;;;;;4998370;28;1276;-75
2021/12/13 13:55:28;;;;;;;;;;;21.60;53.60;;;;;;4988794;28;1907;-74
2021/12/13 13:57:58;;;;;;;;;;;21.60;53.60;;;;;;5007572;28;1165;-74
2021/12/13 14:00:23;;;;;;;;;;;21.60;53.60;;;;;;4992952;28;1229;-72
2021/12/13 14:02:49;;;;;;;;;;;21.60;53.60;;;;;;5005735;28;1303;-74
2021/12/13 14:05:14;;;;;;;;;;;21.50;53.60;;;;;;5007731;28;1248;-73
2021/12/13 14:07:40;;;;;;;;;;;21.50;53.70;;;;;;5006043;28;1696;-72
2021/12/13 14:10:08;;;;;;;;;;;21.50;53.70;;;;;;4992775;28;1443;-72
2021/12/13 14:13:00;;;;;;;;;;;21.50;53.70;;;;;;5003883;28;1373;-71
2021/12/13 14:15:27;;;;;;;;;;;21.50;53.70;;;;;;5000860;28;1968;-72
2021/12/13 14:17:53;;;;;;;;;;;21.50;53.70;;;;;;4991014;28;1418;-74
2021/12/13 14:20:28;;;;;;;;;;;21.50;53.80;;;;;;5007562;28;1317;-72
2021/12/13 14:22:58;;;;;;;;;;;21.50;53.80;;;;;;5004829;28;1322;-71
2021/12/13 14:25:27;;;;;;;;;;;21.40;53.80;;;;;;5005718;28;1317;-71
2021/12/13 14:27:53;;;;;;;;;;;21.40;53.80;;;;;;5001457;28;1269;-72
2021/12/13 14:30:20;;;;;;;;;;;21.40;53.80;;;;;;4988222;28;2225;-73
2021/12/13 14:32:45;;;;;;;;;;;21.40;53.90;;;;;;5011163;28;1499;-71
2021/12/13 14:35:15;;;;;;;;;;;21.40;53.90;;;;;;5010146;28;1914;-70
2021/12/13 14:37:40;;;;;;;;;;;21.40;53.90;;;;;;5005966;28;1144;-71
2021/12/13 14:40:06;;;;;;;;;;;21.40;53.90;;;;;;5000989;28;1225;-71
2021/12/13 14:42:32;;;;;;;;;;;21.40;54.00;;;;;;5008786;28;1300;-70
2021/12/13 14:44:58;;;;;;;;;;;21.40;54.00;;;;;;4999302;28;915;-70
2021/12/13 14:47:26;;;;;;;;;;;21.30;54.00;;;;;;4993956;28;1128;-71
2021/12/13 14:49:53;;;;;;;;;;;21.30;54.00;;;;;;5000444;28;1925;-72